sensor_id;sensor_type;location;lat;lon;timestamp;temperature;humidity
17200;DHT22;8716;52.268;20.968;2023-01-31T00:01:14;4.10;99.90
17200;DHT22;8716;52.268;20.968;2023-01-31T00:03:43;4.10;99.90
17200;DHT22;8716;52.268;20.968;2023-01-31T00:06:15;4.20;99.90
17200;DHT22;8716;52.268;20.968;2023-01-31T00:08:44;4.10;99.90
17200;DHT22;8716;52.268;20.968;2023-01-31T00:11:13;4.10;99.90
17200;DHT22;8716;52.268;20.968;2023-01-31T00:13:44;4.10;99.90
17200;DHT22;8716;52.268;20.968;2023-01-31T00:16:13;4.10;99.90
17200;DHT22;8716;52.268;20.968;2023-01-31T00:18:42;4.10;99.90
17200;DHT22;8716;52.268;20.968;2023-01-31T00:21:12;4.10;99.90
17200;DHT22;8716;52.268;20.968;2023-01-31T00:23:44;4.20;99.90
17200;DHT22;8716;52.268;20.968;2023-01-31T00:26:14;4.20;99.90
17200;DHT22;8716;52.268;20.968;2023-01-31T00:28:45;4.20;99.90
17200;DHT22;8716;52.268;20.968;2023-01-31T00:31:14;4.20;99.90
17200;DHT22;8716;52.268;20.968;2023-01-31T00:33:44;4.20;99.90
17200;DHT22;8716;52.268;20.968;2023-01-31T00:36:18;4.20;99.90
17200;DHT22;8716;52.268;20.968;2023-01-31T00:38:47;4.20;99.90
17200;DHT22;8716;52.268;20.968;2023-01-31T00:41:17;4.20;99.90
17200;DHT22;8716;52.268;20.968;2023-01-31T00:43:49;4.20;99.90
17200;DHT22;8716;52.268;20.968;2023-01-31T00:46:18;4.30;99.90
17200;DHT22;8716;52.268;20.968;2023-01-31T00:48:48;4.30;99.90
17200;DHT22;8716;52.268;20.968;2023-01-31T00:51:17;4.20;99.90
17200;DHT22;8716;52.268;20.968;2023-01-31T00:53:48;4.20;99.90
17200;DHT22;8716;52.268;20.968;2023-01-31T00:56:18;4.20;99.90
17200;DHT22;8716;52.268;20.968;2023-01-31T00:58:50;4.20;99.90
17200;DHT22;8716;52.268;20.968;2023-01-31T01:01:20;4.30;99.90
17200;DHT22;8716;52.268;20.968;2023-01-31T01:03:53;4.30;99.90
17200;DHT22;8716;52.268;20.968;2023-01-31T01:06:22;4.30;99.90
17200;DHT22;8716;52.268;20.968;2023-01-31T01:08:50;4.20;99.90
17200;DHT22;8716;52.268;20.968;2023-01-31T01:11:24;4.20;99.90
17200;DHT22;8716;52.268;20.968;2023-01-31T01:13:54;4.20;99.90
17200;DHT22;8716;52.268;20.968;2023-01-31T01:16:24;4.20;99.90
17200;DHT22;8716;52.268;20.968;2023-01-31T01:18:53;4.30;99.90
17200;DHT22;8716;52.268;20.968;2023-01-31T01:21:23;4.30;99.90
17200;DHT22;8716;52.268;20.968;2023-01-31T01:23:55;4.30;99.90
17200;DHT22;8716;52.268;20.968;2023-01-31T01:26:28;4.30;99.90
17200;DHT22;8716;52.268;20.968;2023-01-31T01:29:00;4.30;99.90
17200;DHT22;8716;52.268;20.968;2023-01-31T01:31:29;4.30;99.90
17200;DHT22;8716;52.268;20.968;2023-01-31T01:33:59;4.40;99.90
17200;DHT22;8716;52.268;20.968;2023-01-31T01:36:30;4.30;99.90
17200;DHT22;8716;52.268;20.968;2023-01-31T01:39:00;4.30;99.90
17200;DHT22;8716;52.268;20.968;2023-01-31T01:41:29;4.30;99.90
17200;DHT22;8716;52.268;20.968;2023-01-31T01:44:02;4.30;99.90
17200;DHT22;8716;52.268;20.968;2023-01-31T01:46:35;4.20;99.90
17200;DHT22;8716;52.268;20.968;2023-01-31T01:49:14;4.20;99.90
17200;DHT22;8716;52.268;20.968;2023-01-31T01:51:47;4.20;99.90
17200;DHT22;8716;52.268;20.968;2023-01-31T01:54:23;4.20;99.90
17200;DHT22;8716;52.268;20.968;2023-01-31T01:57:04;4.20;99.90
17200;DHT22;8716;52.268;20.968;2023-01-31T01:59:39;4.10;99.90
17200;DHT22;8716;52.268;20.968;2023-01-31T02:02:10;4.10;99.90
17200;DHT22;8716;52.268;20.968;2023-01-31T02:04:40;4.10;99.90
17200;DHT22;8716;52.268;20.968;2023-01-31T02:07:11;4.10;99.90
17200;DHT22;8716;52.268;20.968;2023-01-31T02:09:46;4.10;99.90
17200;DHT22;8716;52.268;20.968;2023-01-31T02:12:15;4.20;99.90
17200;DHT22;8716;52.268;20.968;2023-01-31T02:14:45;4.20;99.90
17200;DHT22;8716;52.268;20.968;2023-01-31T02:17:17;4.20;99.90
17200;DHT22;8716;52.268;20.968;2023-01-31T02:19:57;4.20;99.90
17200;DHT22;8716;52.268;20.968;2023-01-31T02:22:31;4.20;99.90
17200;DHT22;8716;52.268;20.968;2023-01-31T02:25:34;4.20;99.90
17200;DHT22;8716;52.268;20.968;2023-01-31T02:34:38;4.30;99.90
17200;DHT22;8716;52.268;20.968;2023-01-31T02:37:17;4.30;99.90
17200;DHT22;8716;52.268;20.968;2023-01-31T02:39:55;4.40;99.90
17200;DHT22;8716;52.268;20.968;2023-01-31T02:42:34;4.40;99.90
17200;DHT22;8716;52.268;20.968;2023-01-31T02:45:10;4.40;99.90
17200;DHT22;8716;52.268;20.968;2023-01-31T02:47:49;4.40;99.90
17200;DHT22;8716;52.268;20.968;2023-01-31T02:50:24;4.40;99.90
17200;DHT22;8716;52.268;20.968;2023-01-31T02:52:58;4.40;99.90
17200;DHT22;8716;52.268;20.968;2023-01-31T02:55:36;4.40;99.90
17200;DHT22;8716;52.268;20.968;2023-01-31T02:58:26;4.40;99.90
17200;DHT22;8716;52.268;20.968;2023-01-31T03:00:59;4.40;99.90
17200;DHT22;8716;52.268;20.968;2023-01-31T03:03:34;4.50;99.90
17200;DHT22;8716;52.268;20.968;2023-01-31T03:09:40;4.50;99.90
17200;DHT22;8716;52.268;20.968;2023-01-31T03:12:21;4.50;99.90
17200;DHT22;8716;52.268;20.968;2023-01-31T03:15:02;4.50;99.90
17200;DHT22;8716;52.268;20.968;2023-01-31T03:17:48;4.50;99.90
17200;DHT22;8716;52.268;20.968;2023-01-31T03:20:20;4.60;99.90
17200;DHT22;8716;52.268;20.968;2023-01-31T03:22:56;4.60;99.90
17200;DHT22;8716;52.268;20.968;2023-01-31T03:25:30;4.60;99.90
17200;DHT22;8716;52.268;20.968;2023-01-31T03:28:05;4.70;99.90
17200;DHT22;8716;52.268;20.968;2023-01-31T03:30:38;4.60;99.90
17200;DHT22;8716;52.268;20.968;2023-01-31T03:33:14;4.60;99.90
17200;DHT22;8716;52.268;20.968;2023-01-31T03:35:46;4.70;99.90
17200;DHT22;8716;52.268;20.968;2023-01-31T03:38:25;4.70;99.90
17200;DHT22;8716;52.268;20.968;2023-01-31T03:41:00;4.70;99.90
17200;DHT22;8716;52.268;20.968;2023-01-31T03:43:34;4.80;99.90
17200;DHT22;8716;52.268;20.968;2023-01-31T03:46:07;4.80;99.90
17200;DHT22;8716;52.268;20.968;2023-01-31T03:48:39;4.80;99.90
17200;DHT22;8716;52.268;20.968;2023-01-31T03:51:13;4.80;99.90
17200;DHT22;8716;52.268;20.968;2023-01-31T03:53:47;4.80;99.90
17200;DHT22;8716;52.268;20.968;2023-01-31T03:56:20;4.90;99.90
17200;DHT22;8716;52.268;20.968;2023-01-31T03:58:52;4.80;99.90
17200;DHT22;8716;52.268;20.968;2023-01-31T04:01:22;4.80;99.90
17200;DHT22;8716;52.268;20.968;2023-01-31T04:03:57;4.80;99.90
17200;DHT22;8716;52.268;20.968;2023-01-31T04:06:29;4.80;99.90
17200;DHT22;8716;52.268;20.968;2023-01-31T04:08:59;4.80;99.90
17200;DHT22;8716;52.268;20.968;2023-01-31T04:11:27;4.90;99.90
17200;DHT22;8716;52.268;20.968;2023-01-31T04:13:55;4.80;99.90
17200;DHT22;8716;52.268;20.968;2023-01-31T04:16:23;4.90;99.90
17200;DHT22;8716;52.268;20.968;2023-01-31T04:18:52;4.90;99.90
17200;DHT22;8716;52.268;20.968;2023-01-31T04:21:22;4.80;99.90
17200;DHT22;8716;52.268;20.968;2023-01-31T04:23:50;4.90;99.90
17200;DHT22;8716;52.268;20.968;2023-01-31T04:26:20;4.90;99.90
17200;DHT22;8716;52.268;20.968;2023-01-31T04:28:48;4.80;99.90
17200;DHT22;8716;52.268;20.968;2023-01-31T04:31:17;4.90;99.90
17200;DHT22;8716;52.268;20.968;2023-01-31T04:33:47;4.90;99.90
17200;DHT22;8716;52.268;20.968;2023-01-31T04:36:16;4.80;99.90
17200;DHT22;8716;52.268;20.968;2023-01-31T04:38:44;4.80;99.90
17200;DHT22;8716;52.268;20.968;2023-01-31T04:41:12;4.80;99.90
17200;DHT22;8716;52.268;20.968;2023-01-31T04:43:41;4.80;99.90
17200;DHT22;8716;52.268;20.968;2023-01-31T04:46:10;4.80;99.90
17200;DHT22;8716;52.268;20.968;2023-01-31T04:48:38;4.70;99.90
17200;DHT22;8716;52.268;20.968;2023-01-31T04:51:07;4.80;99.90
17200;DHT22;8716;52.268;20.968;2023-01-31T04:53:35;4.70;99.90
17200;DHT22;8716;52.268;20.968;2023-01-31T04:56:06;4.60;99.90
17200;DHT22;8716;52.268;20.968;2023-01-31T04:58:34;4.60;99.90
17200;DHT22;8716;52.268;20.968;2023-01-31T05:01:04;4.60;99.90
17200;DHT22;8716;52.268;20.968;2023-01-31T05:03:33;4.60;99.90
17200;DHT22;8716;52.268;20.968;2023-01-31T05:06:01;4.50;99.90
17200;DHT22;8716;52.268;20.968;2023-01-31T05:08:29;4.60;99.90
17200;DHT22;8716;52.268;20.968;2023-01-31T05:10:59;4.60;99.90
17200;DHT22;8716;52.268;20.968;2023-01-31T05:13:30;4.60;99.90
17200;DHT22;8716;52.268;20.968;2023-01-31T05:15:59;4.50;99.90
17200;DHT22;8716;52.268;20.968;2023-01-31T05:18:28;4.50;99.90
17200;DHT22;8716;52.268;20.968;2023-01-31T05:20:59;4.50;99.90
17200;DHT22;8716;52.268;20.968;2023-01-31T05:23:27;4.50;99.90
17200;DHT22;8716;52.268;20.968;2023-01-31T05:25:58;4.50;99.90
17200;DHT22;8716;52.268;20.968;2023-01-31T05:28:26;4.60;99.90
17200;DHT22;8716;52.268;20.968;2023-01-31T05:31:01;4.50;99.90
17200;DHT22;8716;52.268;20.968;2023-01-31T05:33:31;4.50;99.90
17200;DHT22;8716;52.268;20.968;2023-01-31T05:36:00;4.60;99.90
17200;DHT22;8716;52.268;20.968;2023-01-31T05:38:29;4.60;99.90
17200;DHT22;8716;52.268;20.968;2023-01-31T05:40:57;4.60;99.90
17200;DHT22;8716;52.268;20.968;2023-01-31T05:43:26;4.50;99.90
17200;DHT22;8716;52.268;20.968;2023-01-31T05:45:54;4.60;99.90
17200;DHT22;8716;52.268;20.968;2023-01-31T05:48:22;4.60;99.90
17200;DHT22;8716;52.268;20.968;2023-01-31T05:50:54;4.60;99.90
17200;DHT22;8716;52.268;20.968;2023-01-31T05:53:22;4.60;99.90
17200;DHT22;8716;52.268;20.968;2023-01-31T05:55:53;4.60;99.90
17200;DHT22;8716;52.268;20.968;2023-01-31T05:58:21;4.60;99.90
17200;DHT22;8716;52.268;20.968;2023-01-31T06:00:49;4.60;99.90
17200;DHT22;8716;52.268;20.968;2023-01-31T06:03:18;4.60;99.90
17200;DHT22;8716;52.268;20.968;2023-01-31T06:05:46;4.60;99.90
17200;DHT22;8716;52.268;20.968;2023-01-31T06:08:15;4.60;99.90
17200;DHT22;8716;52.268;20.968;2023-01-31T06:10:44;4.60;99.90
17200;DHT22;8716;52.268;20.968;2023-01-31T06:13:12;4.60;99.90
17200;DHT22;8716;52.268;20.968;2023-01-31T06:15:42;4.60;99.90
17200;DHT22;8716;52.268;20.968;2023-01-31T06:18:10;4.60;99.90
17200;DHT22;8716;52.268;20.968;2023-01-31T06:20:39;4.60;99.90
17200;DHT22;8716;52.268;20.968;2023-01-31T06:23:07;4.60;99.90
17200;DHT22;8716;52.268;20.968;2023-01-31T06:25:36;4.60;99.90
17200;DHT22;8716;52.268;20.968;2023-01-31T06:28:05;4.60;99.90
17200;DHT22;8716;52.268;20.968;2023-01-31T06:30:33;4.60;99.90
17200;DHT22;8716;52.268;20.968;2023-01-31T06:33:01;4.60;99.90
17200;DHT22;8716;52.268;20.968;2023-01-31T06:35:30;4.70;99.90
17200;DHT22;8716;52.268;20.968;2023-01-31T06:37:59;4.60;99.90
17200;DHT22;8716;52.268;20.968;2023-01-31T06:40:27;4.60;99.90
17200;DHT22;8716;52.268;20.968;2023-01-31T06:42:58;4.60;99.90
17200;DHT22;8716;52.268;20.968;2023-01-31T06:45:27;4.70;99.90
17200;DHT22;8716;52.268;20.968;2023-01-31T06:47:55;4.70;99.90
17200;DHT22;8716;52.268;20.968;2023-01-31T06:50:23;4.70;99.90
17200;DHT22;8716;52.268;20.968;2023-01-31T06:52:51;4.60;99.90
17200;DHT22;8716;52.268;20.968;2023-01-31T06:55:20;4.70;99.90
17200;DHT22;8716;52.268;20.968;2023-01-31T06:57:48;4.70;99.90
17200;DHT22;8716;52.268;20.968;2023-01-31T07:00:19;4.70;99.90
17200;DHT22;8716;52.268;20.968;2023-01-31T07:02:47;4.70;99.90
17200;DHT22;8716;52.268;20.968;2023-01-31T07:05:15;4.70;99.90
17200;DHT22;8716;52.268;20.968;2023-01-31T07:07:44;4.70;99.90
17200;DHT22;8716;52.268;20.968;2023-01-31T07:10:15;4.80;99.90
17200;DHT22;8716;52.268;20.968;2023-01-31T07:12:43;4.80;99.90
17200;DHT22;8716;52.268;20.968;2023-01-31T07:15:15;4.90;99.90
17200;DHT22;8716;52.268;20.968;2023-01-31T07:17:44;4.90;99.90
17200;DHT22;8716;52.268;20.968;2023-01-31T07:20:13;4.90;99.90
17200;DHT22;8716;52.268;20.968;2023-01-31T07:22:43;4.90;99.90
17200;DHT22;8716;52.268;20.968;2023-01-31T07:25:11;4.90;99.90
17200;DHT22;8716;52.268;20.968;2023-01-31T07:27:40;4.90;99.90
17200;DHT22;8716;52.268;20.968;2023-01-31T07:30:09;4.90;99.90
17200;DHT22;8716;52.268;20.968;2023-01-31T07:32:38;4.90;99.90
17200;DHT22;8716;52.268;20.968;2023-01-31T07:35:08;5.00;99.90
17200;DHT22;8716;52.268;20.968;2023-01-31T07:37:39;5.00;99.90
17200;DHT22;8716;52.268;20.968;2023-01-31T07:40:10;5.10;99.90
17200;DHT22;8716;52.268;20.968;2023-01-31T07:42:38;5.10;99.90
17200;DHT22;8716;52.268;20.968;2023-01-31T07:45:09;5.10;99.90
17200;DHT22;8716;52.268;20.968;2023-01-31T07:47:52;5.20;99.90
17200;DHT22;8716;52.268;20.968;2023-01-31T07:50:21;5.30;99.90
17200;DHT22;8716;52.268;20.968;2023-01-31T07:52:52;5.30;99.90
17200;DHT22;8716;52.268;20.968;2023-01-31T07:55:20;5.40;99.90
17200;DHT22;8716;52.268;20.968;2023-01-31T07:57:48;5.40;99.90
17200;DHT22;8716;52.268;20.968;2023-01-31T08:00:18;5.40;99.90
17200;DHT22;8716;52.268;20.968;2023-01-31T08:03:03;5.50;99.90
17200;DHT22;8716;52.268;20.968;2023-01-31T08:05:51;5.60;99.90
17200;DHT22;8716;52.268;20.968;2023-01-31T08:08:19;5.70;99.90
17200;DHT22;8716;52.268;20.968;2023-01-31T08:10:47;5.60;99.90
17200;DHT22;8716;52.268;20.968;2023-01-31T08:13:15;5.70;99.90
17200;DHT22;8716;52.268;20.968;2023-01-31T08:15:43;5.70;99.90
17200;DHT22;8716;52.268;20.968;2023-01-31T08:18:12;5.70;99.90
17200;DHT22;8716;52.268;20.968;2023-01-31T08:20:43;5.70;99.90
17200;DHT22;8716;52.268;20.968;2023-01-31T08:23:13;5.70;99.90
17200;DHT22;8716;52.268;20.968;2023-01-31T08:25:43;5.70;99.90
17200;DHT22;8716;52.268;20.968;2023-01-31T08:28:12;5.80;99.90
17200;DHT22;8716;52.268;20.968;2023-01-31T08:30:41;5.80;99.90
17200;DHT22;8716;52.268;20.968;2023-01-31T08:33:22;5.80;99.90
17200;DHT22;8716;52.268;20.968;2023-01-31T08:35:50;5.80;99.90
17200;DHT22;8716;52.268;20.968;2023-01-31T08:38:22;5.80;99.90
17200;DHT22;8716;52.268;20.968;2023-01-31T08:40:50;5.90;99.90
17200;DHT22;8716;52.268;20.968;2023-01-31T08:43:18;5.90;99.90
17200;DHT22;8716;52.268;20.968;2023-01-31T08:45:47;6.10;99.90
17200;DHT22;8716;52.268;20.968;2023-01-31T08:48:15;6.10;99.90
17200;DHT22;8716;52.268;20.968;2023-01-31T08:50:43;6.20;99.90
17200;DHT22;8716;52.268;20.968;2023-01-31T08:53:12;6.40;99.90
17200;DHT22;8716;52.268;20.968;2023-01-31T08:55:41;6.50;99.90
17200;DHT22;8716;52.268;20.968;2023-01-31T08:58:09;6.50;99.90
17200;DHT22;8716;52.268;20.968;2023-01-31T09:00:38;6.60;99.90
17200;DHT22;8716;52.268;20.968;2023-01-31T09:03:06;6.60;99.90
17200;DHT22;8716;52.268;20.968;2023-01-31T09:05:34;6.60;99.90
17200;DHT22;8716;52.268;20.968;2023-01-31T09:08:03;6.50;99.90
17200;DHT22;8716;52.268;20.968;2023-01-31T09:10:31;6.50;99.90
17200;DHT22;8716;52.268;20.968;2023-01-31T09:13:00;6.50;99.90
17200;DHT22;8716;52.268;20.968;2023-01-31T09:15:31;6.50;99.90
17200;DHT22;8716;52.268;20.968;2023-01-31T09:18:03;6.50;99.90
17200;DHT22;8716;52.268;20.968;2023-01-31T09:20:32;6.50;99.90
17200;DHT22;8716;52.268;20.968;2023-01-31T09:23:00;6.50;99.90
17200;DHT22;8716;52.268;20.968;2023-01-31T09:25:30;6.50;99.90
17200;DHT22;8716;52.268;20.968;2023-01-31T09:28:14;6.50;99.90
17200;DHT22;8716;52.268;20.968;2023-01-31T09:30:42;6.40;99.90
17200;DHT22;8716;52.268;20.968;2023-01-31T09:33:10;6.40;99.90
17200;DHT22;8716;52.268;20.968;2023-01-31T09:35:39;6.40;99.90
17200;DHT22;8716;52.268;20.968;2023-01-31T09:38:07;6.40;99.90
17200;DHT22;8716;52.268;20.968;2023-01-31T09:40:37;6.40;99.90
17200;DHT22;8716;52.268;20.968;2023-01-31T09:43:10;6.40;99.90
17200;DHT22;8716;52.268;20.968;2023-01-31T09:45:41;6.30;99.90
17200;DHT22;8716;52.268;20.968;2023-01-31T09:48:16;6.30;99.90
17200;DHT22;8716;52.268;20.968;2023-01-31T09:50:48;6.30;99.90
17200;DHT22;8716;52.268;20.968;2023-01-31T09:53:19;6.20;99.90
17200;DHT22;8716;52.268;20.968;2023-01-31T09:55:55;6.40;99.90
17200;DHT22;8716;52.268;20.968;2023-01-31T09:58:34;6.40;99.90
17200;DHT22;8716;52.268;20.968;2023-01-31T10:01:15;6.40;99.90
17200;DHT22;8716;52.268;20.968;2023-01-31T10:03:54;6.40;99.90
17200;DHT22;8716;52.268;20.968;2023-01-31T10:06:33;6.40;99.90
17200;DHT22;8716;52.268;20.968;2023-01-31T10:09:13;6.40;99.90
17200;DHT22;8716;52.268;20.968;2023-01-31T10:11:46;6.50;99.90
17200;DHT22;8716;52.268;20.968;2023-01-31T10:14:22;6.50;99.90
17200;DHT22;8716;52.268;20.968;2023-01-31T10:17:05;6.60;99.90
17200;DHT22;8716;52.268;20.968;2023-01-31T10:19:39;6.60;99.90
17200;DHT22;8716;52.268;20.968;2023-01-31T10:22:15;6.70;99.90
17200;DHT22;8716;52.268;20.968;2023-01-31T10:24:48;6.70;99.90
17200;DHT22;8716;52.268;20.968;2023-01-31T10:27:30;6.70;99.90
17200;DHT22;8716;52.268;20.968;2023-01-31T10:30:02;6.70;99.90
17200;DHT22;8716;52.268;20.968;2023-01-31T10:32:36;6.70;99.90
17200;DHT22;8716;52.268;20.968;2023-01-31T10:35:13;6.70;99.90
17200;DHT22;8716;52.268;20.968;2023-01-31T10:37:45;6.80;99.90
17200;DHT22;8716;52.268;20.968;2023-01-31T10:40:16;6.80;99.90
17200;DHT22;8716;52.268;20.968;2023-01-31T10:42:49;6.80;99.90
17200;DHT22;8716;52.268;20.968;2023-01-31T10:45:20;6.80;99.90
17200;DHT22;8716;52.268;20.968;2023-01-31T10:47:52;6.80;99.90
17200;DHT22;8716;52.268;20.968;2023-01-31T10:50:30;6.80;99.90
17200;DHT22;8716;52.268;20.968;2023-01-31T10:53:10;6.70;99.90
17200;DHT22;8716;52.268;20.968;2023-01-31T10:55:50;6.70;99.90
17200;DHT22;8716;52.268;20.968;2023-01-31T10:58:22;6.70;99.90
17200;DHT22;8716;52.268;20.968;2023-01-31T11:00:50;6.80;99.90
17200;DHT22;8716;52.268;20.968;2023-01-31T11:03:20;7.00;99.90
17200;DHT22;8716;52.268;20.968;2023-01-31T11:05:50;7.20;99.90
17200;DHT22;8716;52.268;20.968;2023-01-31T11:08:31;7.40;99.90
17200;DHT22;8716;52.268;20.968;2023-01-31T11:11:06;7.50;99.90
17200;DHT22;8716;52.268;20.968;2023-01-31T11:13:35;7.70;99.90
17200;DHT22;8716;52.268;20.968;2023-01-31T11:16:07;7.70;99.90
17200;DHT22;8716;52.268;20.968;2023-01-31T11:18:43;7.70;99.90
17200;DHT22;8716;52.268;20.968;2023-01-31T11:21:19;7.60;99.90
17200;DHT22;8716;52.268;20.968;2023-01-31T11:23:48;7.50;99.90
17200;DHT22;8716;52.268;20.968;2023-01-31T11:26:29;7.50;99.90
17200;DHT22;8716;52.268;20.968;2023-01-31T11:28:58;7.40;99.90
17200;DHT22;8716;52.268;20.968;2023-01-31T11:31:39;7.30;99.90
17200;DHT22;8716;52.268;20.968;2023-01-31T11:34:20;7.20;99.90
17200;DHT22;8716;52.268;20.968;2023-01-31T11:36:48;7.20;99.90
17200;DHT22;8716;52.268;20.968;2023-01-31T11:39:28;7.20;99.90
17200;DHT22;8716;52.268;20.968;2023-01-31T11:42:04;7.10;99.90
17200;DHT22;8716;52.268;20.968;2023-01-31T11:44:32;7.10;99.90
17200;DHT22;8716;52.268;20.968;2023-01-31T11:47:03;7.00;99.90
17200;DHT22;8716;52.268;20.968;2023-01-31T11:49:35;7.00;99.90
17200;DHT22;8716;52.268;20.968;2023-01-31T11:52:12;6.90;99.90
17200;DHT22;8716;52.268;20.968;2023-01-31T11:54:44;6.90;99.90
17200;DHT22;8716;52.268;20.968;2023-01-31T11:57:15;6.90;99.90
17200;DHT22;8716;52.268;20.968;2023-01-31T11:59:44;6.90;99.90
17200;DHT22;8716;52.268;20.968;2023-01-31T12:02:24;6.90;99.90
17200;DHT22;8716;52.268;20.968;2023-01-31T12:04:55;6.90;99.90
17200;DHT22;8716;52.268;20.968;2023-01-31T12:07:25;6.80;99.90
17200;DHT22;8716;52.268;20.968;2023-01-31T12:09:56;6.80;99.90
17200;DHT22;8716;52.268;20.968;2023-01-31T12:12:29;6.90;99.90
17200;DHT22;8716;52.268;20.968;2023-01-31T12:15:04;7.00;99.90
17200;DHT22;8716;52.268;20.968;2023-01-31T12:17:43;7.10;99.90
17200;DHT22;8716;52.268;20.968;2023-01-31T12:20:31;7.10;99.90
17200;DHT22;8716;52.268;20.968;2023-01-31T12:23:23;7.20;99.90
17200;DHT22;8716;52.268;20.968;2023-01-31T12:26:04;7.20;99.90
17200;DHT22;8716;52.268;20.968;2023-01-31T12:28:48;7.30;99.90
17200;DHT22;8716;52.268;20.968;2023-01-31T12:34:52;7.30;99.90
17200;DHT22;8716;52.268;20.968;2023-01-31T12:37:38;7.40;99.90
17200;DHT22;8716;52.268;20.968;2023-01-31T12:40:27;7.30;99.90
17200;DHT22;8716;52.268;20.968;2023-01-31T12:42:58;7.40;99.90
17200;DHT22;8716;52.268;20.968;2023-01-31T12:45:56;7.40;99.90
17200;DHT22;8716;52.268;20.968;2023-01-31T12:48:50;7.30;99.90
17200;DHT22;8716;52.268;20.968;2023-01-31T12:51:39;7.20;99.90
17200;DHT22;8716;52.268;20.968;2023-01-31T12:54:24;7.10;99.90
17200;DHT22;8716;52.268;20.968;2023-01-31T12:57:14;7.00;99.90
17200;DHT22;8716;52.268;20.968;2023-01-31T12:59:51;7.00;99.90
17200;DHT22;8716;52.268;20.968;2023-01-31T13:02:42;6.90;99.90
17200;DHT22;8716;52.268;20.968;2023-01-31T13:05:25;6.90;99.90
17200;DHT22;8716;52.268;20.968;2023-01-31T13:07:58;6.80;99.90
17200;DHT22;8716;52.268;20.968;2023-01-31T13:10:35;6.80;99.90
17200;DHT22;8716;52.268;20.968;2023-01-31T13:13:13;6.70;99.90
17200;DHT22;8716;52.268;20.968;2023-01-31T13:15:47;6.60;99.90
17200;DHT22;8716;52.268;20.968;2023-01-31T13:18:16;6.50;99.90
17200;DHT22;8716;52.268;20.968;2023-01-31T13:20:49;6.50;99.90
17200;DHT22;8716;52.268;20.968;2023-01-31T13:23:21;6.50;99.90
17200;DHT22;8716;52.268;20.968;2023-01-31T13:25:55;6.60;99.90
17200;DHT22;8716;52.268;20.968;2023-01-31T13:28:26;6.60;99.90
17200;DHT22;8716;52.268;20.968;2023-01-31T13:30:57;6.60;99.90
17200;DHT22;8716;52.268;20.968;2023-01-31T13:33:34;6.50;99.90
17200;DHT22;8716;52.268;20.968;2023-01-31T13:36:10;6.40;99.90
17200;DHT22;8716;52.268;20.968;2023-01-31T13:38:43;6.50;99.90
17200;DHT22;8716;52.268;20.968;2023-01-31T13:41:21;6.50;99.90
17200;DHT22;8716;52.268;20.968;2023-01-31T13:43:52;6.50;99.90
17200;DHT22;8716;52.268;20.968;2023-01-31T13:50:40;6.40;99.90
17200;DHT22;8716;52.268;20.968;2023-01-31T13:53:44;6.40;99.90
17200;DHT22;8716;52.268;20.968;2023-01-31T13:56:54;6.40;99.90
17200;DHT22;8716;52.268;20.968;2023-01-31T13:59:36;6.30;99.90
17200;DHT22;8716;52.268;20.968;2023-01-31T14:02:17;6.20;99.90
17200;DHT22;8716;52.268;20.968;2023-01-31T14:04:49;6.10;99.90
17200;DHT22;8716;52.268;20.968;2023-01-31T14:07:20;6.10;99.90
17200;DHT22;8716;52.268;20.968;2023-01-31T14:21:52;5.80;99.90
17200;DHT22;8716;52.268;20.968;2023-01-31T14:29:14;5.80;99.90
17200;DHT22;8716;52.268;20.968;2023-01-31T14:41:23;5.60;99.90
17200;DHT22;8716;52.268;20.968;2023-01-31T14:44:07;5.60;99.90
17200;DHT22;8716;52.268;20.968;2023-01-31T14:47:07;5.50;99.90
17200;DHT22;8716;52.268;20.968;2023-01-31T14:50:00;5.50;99.90
17200;DHT22;8716;52.268;20.968;2023-01-31T14:53:10;5.30;99.90
17200;DHT22;8716;52.268;20.968;2023-01-31T14:56:00;5.40;99.90
17200;DHT22;8716;52.268;20.968;2023-01-31T14:58:35;5.30;99.90
17200;DHT22;8716;52.268;20.968;2023-01-31T15:01:31;5.30;99.90
17200;DHT22;8716;52.268;20.968;2023-01-31T15:04:20;5.20;99.90
17200;DHT22;8716;52.268;20.968;2023-01-31T15:06:53;5.20;99.90
17200;DHT22;8716;52.268;20.968;2023-01-31T15:09:39;5.20;99.90
17200;DHT22;8716;52.268;20.968;2023-01-31T15:18:09;5.10;99.90
17200;DHT22;8716;52.268;20.968;2023-01-31T15:20:42;5.10;99.90
17200;DHT22;8716;52.268;20.968;2023-01-31T15:23:21;5.10;99.90
17200;DHT22;8716;52.268;20.968;2023-01-31T15:26:00;5.00;99.90
17200;DHT22;8716;52.268;20.968;2023-01-31T15:28:34;5.00;99.90
17200;DHT22;8716;52.268;20.968;2023-01-31T15:31:16;5.00;99.90
17200;DHT22;8716;52.268;20.968;2023-01-31T15:33:50;5.00;99.90
17200;DHT22;8716;52.268;20.968;2023-01-31T15:36:32;4.90;99.90
17200;DHT22;8716;52.268;20.968;2023-01-31T15:39:14;4.90;99.90
17200;DHT22;8716;52.268;20.968;2023-01-31T15:41:47;4.80;99.90
17200;DHT22;8716;52.268;20.968;2023-01-31T15:44:27;4.80;99.90
17200;DHT22;8716;52.268;20.968;2023-01-31T15:46:56;4.70;99.90
17200;DHT22;8716;52.268;20.968;2023-01-31T15:49:51;4.70;99.90
17200;DHT22;8716;52.268;20.968;2023-01-31T15:52:21;4.70;99.90
17200;DHT22;8716;52.268;20.968;2023-01-31T15:55:02;4.60;99.90
17200;DHT22;8716;52.268;20.968;2023-01-31T16:00:12;4.50;99.90
17200;DHT22;8716;52.268;20.968;2023-01-31T16:02:49;4.50;99.90
17200;DHT22;8716;52.268;20.968;2023-01-31T16:05:57;4.40;99.90
17200;DHT22;8716;52.268;20.968;2023-01-31T16:08:28;4.40;99.90
17200;DHT22;8716;52.268;20.968;2023-01-31T16:11:01;4.40;99.90
17200;DHT22;8716;52.268;20.968;2023-01-31T16:13:36;4.40;99.90
17200;DHT22;8716;52.268;20.968;2023-01-31T16:16:08;4.30;99.90
17200;DHT22;8716;52.268;20.968;2023-01-31T16:18:44;4.30;99.90
17200;DHT22;8716;52.268;20.968;2023-01-31T16:21:23;4.30;99.90
17200;DHT22;8716;52.268;20.968;2023-01-31T16:24:00;4.30;99.90
17200;DHT22;8716;52.268;20.968;2023-01-31T16:26:35;4.30;99.90
17200;DHT22;8716;52.268;20.968;2023-01-31T16:29:22;4.30;99.90
17200;DHT22;8716;52.268;20.968;2023-01-31T16:31:53;4.20;99.90
17200;DHT22;8716;52.268;20.968;2023-01-31T16:34:27;4.10;99.90
17200;DHT22;8716;52.268;20.968;2023-01-31T16:37:02;4.10;99.90
17200;DHT22;8716;52.268;20.968;2023-01-31T16:39:39;4.10;99.90
17200;DHT22;8716;52.268;20.968;2023-01-31T16:42:23;4.10;99.90
17200;DHT22;8716;52.268;20.968;2023-01-31T16:44:56;4.00;99.90
17200;DHT22;8716;52.268;20.968;2023-01-31T16:47:45;4.10;99.90
17200;DHT22;8716;52.268;20.968;2023-01-31T16:50:39;4.10;99.90
17200;DHT22;8716;52.268;20.968;2023-01-31T16:53:22;4.10;99.90
17200;DHT22;8716;52.268;20.968;2023-01-31T16:56:22;4.10;99.90
17200;DHT22;8716;52.268;20.968;2023-01-31T16:58:53;4.00;99.90
17200;DHT22;8716;52.268;20.968;2023-01-31T17:01:24;4.00;99.90
17200;DHT22;8716;52.268;20.968;2023-01-31T17:04:02;4.00;99.90
17200;DHT22;8716;52.268;20.968;2023-01-31T17:06:32;3.90;99.90
17200;DHT22;8716;52.268;20.968;2023-01-31T17:09:01;3.90;99.90
17200;DHT22;8716;52.268;20.968;2023-01-31T17:11:31;3.90;99.90
17200;DHT22;8716;52.268;20.968;2023-01-31T17:14:08;3.90;99.90
17200;DHT22;8716;52.268;20.968;2023-01-31T17:16:37;3.90;99.90
17200;DHT22;8716;52.268;20.968;2023-01-31T17:19:05;4.00;99.90